createdAt,value
2023-01-19T00:02:23.187Z,8.18
2023-01-19T00:04:49.416Z,7.80
2023-01-19T00:07:15.691Z,8.50
2023-01-19T00:09:41.902Z,8.93
2023-01-19T00:12:08.165Z,7.80
2023-01-19T00:14:34.475Z,7.40
2023-01-19T00:17:01.739Z,7.75
2023-01-19T00:19:28.357Z,8.10
2023-01-19T00:21:54.952Z,7.43
2023-01-19T00:24:21.171Z,8.15
2023-01-19T00:26:47.396Z,8.75
2023-01-19T00:29:13.894Z,8.07
2023-01-19T00:31:40.117Z,8.38
2023-01-19T00:34:07.014Z,8.52
2023-01-19T00:36:33.624Z,8.23
2023-01-19T00:39:00.360Z,9.20
2023-01-19T00:41:45.170Z,8.35
2023-01-19T00:44:11.789Z,7.53
2023-01-19T00:46:38.688Z,7.78
2023-01-19T00:49:05.080Z,8.57
2023-01-19T00:51:31.651Z,8.30
2023-01-19T00:53:59.797Z,7.35
2023-01-19T00:56:27.041Z,7.70
2023-01-19T00:58:53.512Z,7.88
2023-01-19T01:01:19.833Z,7.20
2023-01-19T01:03:46.089Z,7.53
2023-01-19T01:06:12.286Z,7.97
2023-01-19T01:08:38.506Z,8.32
2023-01-19T01:11:04.828Z,7.75
2023-01-19T01:13:31.354Z,7.65
2023-01-19T01:15:58.021Z,7.70
2023-01-19T01:18:24.248Z,7.22
2023-01-19T01:20:50.463Z,6.78
2023-01-19T01:23:16.686Z,7.07
2023-01-19T01:25:43.366Z,6.95
2023-01-19T01:28:09.852Z,7.20
2023-01-19T01:30:39.829Z,6.38
2023-01-19T01:33:06.320Z,6.65
2023-01-19T01:35:33.830Z,6.95
2023-01-19T01:38:00.695Z,6.55
2023-01-19T01:40:28.398Z,6.50
2023-01-19T01:42:54.620Z,6.50
2023-01-19T01:45:34.366Z,5.88
2023-01-19T01:48:10.123Z,5.80
2023-01-19T01:50:38.987Z,6.10
2023-01-19T01:53:11.990Z,5.78
2023-01-19T01:55:42.001Z,5.18
2023-01-19T01:58:09.164Z,5.82
2023-01-19T02:01:05.185Z,5.50
2023-01-19T02:03:33.066Z,5.93
2023-01-19T02:06:01.611Z,5.43
2023-01-19T02:08:52.184Z,5.80
2023-01-19T02:11:37.167Z,5.80
2023-01-19T02:14:04.796Z,6.07
2023-01-19T02:16:31.276Z,5.63
2023-01-19T02:18:57.768Z,5.55
2023-01-19T02:21:31.241Z,5.85
2023-01-19T02:23:58.625Z,5.80
2023-01-19T02:26:27.892Z,5.93
2023-01-19T02:29:20.528Z,5.85
2023-01-19T02:31:46.850Z,5.57
2023-01-19T02:34:15.306Z,5.97
2023-01-19T02:36:44.280Z,6.50
2023-01-19T02:39:10.999Z,6.45
2023-01-19T02:41:42.802Z,6.70
2023-01-19T02:44:10.113Z,6.38
2023-01-19T02:46:37.720Z,6.88
2023-01-19T02:49:03.976Z,6.30
2023-01-19T02:51:30.487Z,7.30
2023-01-19T02:54:09.528Z,7.05
2023-01-19T02:56:43.898Z,7.15
2023-01-19T02:59:33.855Z,6.63
2023-01-19T03:02:05.412Z,7.28
2023-01-19T03:04:40.487Z,7.07
2023-01-19T03:07:06.699Z,7.00
2023-01-19T03:09:40.058Z,6.57
2023-01-19T03:12:35.462Z,7.70
2023-01-19T03:15:07.626Z,7.50
2023-01-19T03:17:34.401Z,7.80
2023-01-19T03:20:02.253Z,6.72
2023-01-19T03:22:29.494Z,7.60
2023-01-19T03:24:59.101Z,6.97
2023-01-19T03:27:26.893Z,7.40
2023-01-19T03:29:56.355Z,7.20
2023-01-19T03:32:29.634Z,6.80
2023-01-19T03:34:56.859Z,7.28
2023-01-19T03:37:24.220Z,7.13
2023-01-19T03:39:50.436Z,6.95
2023-01-19T03:42:17.928Z,7.88
2023-01-19T03:44:45.394Z,7.65
2023-01-19T03:47:13.301Z,7.50
2023-01-19T03:49:40.916Z,7.97
2023-01-19T03:52:07.098Z,7.30
2023-01-19T03:54:33.355Z,7.50
2023-01-19T03:56:59.554Z,8.70
2023-01-19T03:59:25.797Z,7.38
2023-01-19T04:01:52.129Z,7.97
2023-01-19T04:04:18.472Z,8.07
2023-01-19T04:06:44.675Z,7.85
2023-01-19T04:09:11.095Z,7.65
2023-01-19T04:11:37.292Z,7.28
2023-01-19T04:14:03.960Z,7.65
2023-01-19T04:16:30.148Z,7.30
2023-01-19T04:18:57.172Z,7.78
2023-01-19T04:21:23.519Z,7.05
2023-01-19T04:23:49.940Z,7.63
2023-01-19T04:26:16.158Z,6.60
2023-01-19T04:28:42.718Z,7.63
2023-01-19T04:31:09.065Z,7.38
2023-01-19T04:33:35.388Z,6.95
2023-01-19T04:36:01.749Z,6.53
2023-01-19T04:38:28.023Z,6.10
2023-01-19T04:40:54.371Z,5.85
2023-01-19T04:43:21.147Z,5.85
2023-01-19T04:45:47.829Z,6.18
2023-01-19T04:48:14.176Z,5.55
2023-01-19T04:50:41.452Z,6.40
2023-01-19T04:53:08.089Z,5.97
2023-01-19T04:55:34.426Z,5.43
2023-01-19T04:58:00.639Z,5.68
2023-01-19T05:00:26.836Z,5.43
2023-01-19T05:02:53.379Z,5.32
2023-01-19T05:05:19.629Z,5.97
2023-01-19T05:07:45.845Z,5.45
2023-01-19T05:10:12.131Z,5.40
2023-01-19T05:12:38.340Z,5.60
2023-01-19T05:15:04.730Z,5.20
2023-01-19T05:17:30.940Z,5.88
2023-01-19T05:19:57.137Z,5.50
2023-01-19T05:22:23.362Z,5.68
2023-01-19T05:24:49.672Z,5.43
2023-01-19T05:27:15.916Z,5.90
2023-01-19T05:29:42.120Z,5.68
2023-01-19T05:32:08.322Z,6.22
2023-01-19T05:34:34.562Z,6.47
2023-01-19T05:37:00.820Z,6.30
2023-01-19T05:39:27.126Z,6.90
2023-01-19T05:41:53.311Z,6.43
2023-01-19T05:44:19.519Z,7.35
2023-01-19T05:46:45.848Z,7.03
2023-01-19T05:49:12.174Z,7.80
2023-01-19T05:51:38.639Z,8.35
2023-01-19T05:54:05.677Z,8.20
2023-01-19T05:56:32.697Z,8.52
2023-01-19T05:58:59.696Z,8.68
2023-01-19T06:01:26.144Z,9.32
2023-01-19T06:03:52.373Z,9.32
2023-01-19T06:06:18.738Z,9.43
2023-01-19T06:08:45.505Z,9.63
2023-01-19T06:11:12.204Z,10.45
2023-01-19T06:13:41.386Z,10.40
2023-01-19T06:16:08.496Z,11.80
2023-01-19T06:18:34.806Z,10.45
2023-01-19T06:21:07.613Z,11.75
2023-01-19T06:23:35.371Z,11.18
2023-01-19T06:26:02.030Z,11.10
2023-01-19T06:28:28.351Z,10.90
2023-01-19T06:30:55.308Z,11.82
2023-01-19T06:33:22.156Z,11.52
2023-01-19T06:35:48.976Z,11.40
2023-01-19T06:38:17.012Z,10.93
2023-01-19T06:40:43.462Z,10.85
2023-01-19T06:43:09.777Z,11.48
2023-01-19T06:45:36.445Z,10.95
2023-01-19T06:48:03.613Z,10.60
2023-01-19T06:50:29.802Z,10.65
2023-01-19T06:52:56.027Z,10.75
2023-01-19T06:55:22.371Z,10.38
2023-01-19T06:57:58.527Z,10.38
2023-01-19T07:00:25.092Z,11.48
2023-01-19T07:02:51.353Z,11.93
2023-01-19T07:05:17.604Z,11.88
2023-01-19T07:07:45.343Z,12.82
2023-01-19T07:10:12.000Z,12.57
2023-01-19T07:12:39.109Z,12.80
2023-01-19T07:15:06.050Z,13.15
2023-01-19T07:17:32.308Z,12.35
2023-01-19T07:19:58.510Z,14.02
2023-01-19T07:22:24.746Z,12.20
2023-01-19T07:24:50.948Z,13.88
2023-01-19T07:27:17.128Z,14.50
2023-01-19T07:29:43.462Z,13.68
2023-01-19T07:32:09.887Z,13.45
2023-01-19T07:34:36.434Z,14.82
2023-01-19T07:37:02.648Z,14.25
2023-01-19T07:39:28.905Z,14.25
2023-01-19T07:41:55.485Z,14.93
2023-01-19T07:44:21.772Z,14.57
2023-01-19T07:46:48.052Z,13.90
2023-01-19T07:49:14.279Z,14.07
2023-01-19T07:51:40.468Z,13.27
2023-01-19T07:54:08.351Z,14.27
2023-01-19T07:56:34.582Z,16.40
2023-01-19T07:59:00.791Z,14.45
2023-01-19T08:01:27.207Z,13.73
2023-01-19T08:03:53.586Z,16.15
2023-01-19T08:06:23.577Z,16.13
2023-01-19T08:08:50.235Z,16.75
2023-01-19T08:11:16.638Z,15.63
2023-01-19T08:13:43.409Z,14.65
2023-01-19T08:16:09.730Z,15.57
2023-01-19T08:18:36.073Z,16.33
2023-01-19T08:21:02.324Z,14.73
2023-01-19T08:23:28.538Z,15.85
2023-01-19T08:25:54.752Z,15.30
2023-01-19T08:28:21.095Z,16.08
2023-01-19T08:30:53.882Z,15.43
2023-01-19T08:33:20.993Z,14.68
2023-01-19T08:35:48.887Z,15.30
2023-01-19T08:38:15.123Z,14.20
2023-01-19T08:40:41.847Z,15.45
2023-01-19T08:43:09.211Z,15.23
2023-01-19T08:45:36.073Z,15.07
2023-01-19T08:48:02.760Z,15.27
2023-01-19T08:50:29.803Z,14.30
2023-01-19T08:52:57.242Z,14.23
2023-01-19T08:55:24.078Z,15.02
2023-01-19T08:57:51.151Z,15.48
2023-01-19T09:00:17.635Z,15.02
2023-01-19T09:02:43.905Z,15.00
2023-01-19T09:05:10.470Z,15.95
2023-01-19T09:07:37.016Z,15.65
2023-01-19T09:10:04.049Z,14.82
2023-01-19T09:12:30.258Z,16.27
2023-01-19T09:14:56.468Z,15.77
2023-01-19T09:17:22.774Z,16.45
2023-01-19T09:19:49.142Z,16.75
2023-01-19T09:22:15.360Z,16.50
2023-01-19T09:24:41.558Z,16.83
2023-01-19T09:27:07.752Z,16.95
2023-01-19T09:29:34.013Z,17.50
2023-01-19T09:32:00.221Z,16.50
2023-01-19T09:34:26.505Z,17.05
2023-01-19T09:36:52.788Z,18.13
2023-01-19T09:39:19.059Z,17.45
2023-01-19T09:41:47.061Z,18.08
2023-01-19T09:44:16.909Z,18.52
2023-01-19T09:46:43.155Z,19.30
2023-01-19T09:49:32.789Z,17.63
2023-01-19T09:51:59.179Z,19.02
2023-01-19T09:54:28.370Z,19.23
2023-01-19T09:56:54.663Z,18.63
2023-01-19T09:59:25.446Z,19.67
2023-01-19T10:02:10.621Z,18.08
2023-01-19T10:04:55.350Z,19.58
2023-01-19T10:07:40.191Z,18.75
2023-01-19T10:10:13.147Z,19.40
2023-01-19T10:12:51.755Z,18.70
2023-01-19T10:15:38.248Z,20.02
2023-01-19T10:18:17.203Z,17.55
2023-01-19T10:20:46.144Z,20.25
2023-01-19T10:23:19.511Z,20.65
2023-01-19T10:25:46.502Z,20.35
2023-01-19T10:28:13.378Z,19.13
2023-01-19T10:30:42.348Z,20.58
2023-01-19T10:33:11.405Z,21.15
2023-01-19T10:35:37.635Z,21.67
2023-01-19T10:38:03.905Z,21.85
2023-01-19T10:40:36.173Z,19.88
2023-01-19T10:43:22.356Z,19.23
2023-01-19T10:45:49.868Z,20.45
2023-01-19T10:48:16.151Z,22.17
2023-01-19T10:50:42.362Z,22.20
2023-01-19T10:53:20.060Z,19.52
2023-01-19T10:55:46.433Z,21.10
2023-01-19T10:58:29.288Z,19.42
2023-01-19T11:00:55.819Z,20.05
2023-01-19T11:03:28.041Z,20.35
2023-01-19T11:05:58.974Z,20.02
2023-01-19T11:08:29.406Z,20.50
2023-01-19T11:10:58.854Z,19.15
2023-01-19T11:13:25.167Z,19.90
2023-01-19T11:15:57.447Z,19.23
2023-01-19T11:18:35.661Z,19.23
2023-01-19T11:21:03.397Z,19.00
2023-01-19T11:23:32.167Z,19.00
2023-01-19T11:26:00.414Z,19.90
2023-01-19T11:28:31.493Z,19.35
2023-01-19T11:30:59.437Z,19.10
2023-01-19T11:33:34.240Z,18.60
2023-01-19T11:36:07.825Z,18.08
2023-01-19T11:38:40.059Z,17.02
2023-01-19T11:41:13.199Z,18.45
2023-01-19T11:43:48.682Z,18.40
2023-01-19T11:46:16.237Z,16.50
2023-01-19T11:48:44.939Z,16.70
2023-01-19T11:51:14.412Z,15.38
2023-01-19T11:53:43.264Z,15.77
2023-01-19T11:56:13.861Z,13.63
2023-01-19T11:58:41.475Z,15.00
2023-01-19T12:01:07.905Z,13.77
2023-01-19T12:03:39.217Z,13.32
2023-01-19T12:06:07.758Z,13.10
2023-01-19T12:08:39.415Z,13.25
2023-01-19T12:11:08.732Z,13.13
2023-01-19T12:13:35.464Z,13.02
2023-01-19T12:16:07.086Z,12.90
2023-01-19T12:18:36.740Z,13.25
2023-01-19T12:21:04.228Z,14.05
2023-01-19T12:23:49.608Z,13.07
2023-01-19T12:26:15.833Z,14.38
2023-01-19T12:28:44.100Z,13.98
2023-01-19T12:31:14.086Z,14.10
2023-01-19T12:33:40.547Z,13.27
2023-01-19T12:36:11.729Z,14.07
2023-01-19T12:38:43.067Z,13.73
2023-01-19T12:41:27.529Z,13.63
2023-01-19T12:44:12.257Z,15.63
2023-01-19T12:46:49.412Z,14.23
2023-01-19T12:49:21.835Z,15.23
2023-01-19T12:51:48.441Z,15.48
2023-01-19T12:54:34.049Z,14.48
2023-01-19T12:57:02.131Z,15.95
2023-01-19T12:59:28.690Z,14.60
2023-01-19T13:02:13.688Z,13.85
2023-01-19T13:04:39.959Z,14.75
2023-01-19T13:07:10.145Z,14.65
2023-01-19T13:09:37.839Z,14.68
2023-01-19T13:12:13.471Z,15.20
2023-01-19T13:14:40.150Z,15.15
2023-01-19T13:17:18.463Z,15.05
2023-01-19T13:19:47.821Z,14.40
2023-01-19T13:22:32.911Z,14.98
2023-01-19T13:25:11.865Z,15.18
2023-01-19T13:27:38.367Z,14.68
2023-01-19T13:30:10.929Z,14.68
2023-01-19T13:32:40.109Z,14.50
2023-01-19T13:35:06.701Z,14.50
2023-01-19T13:37:38.817Z,16.05
2023-01-19T13:40:05.513Z,14.48
2023-01-19T13:42:38.851Z,15.80
2023-01-19T13:45:11.059Z,15.35
2023-01-19T13:47:37.231Z,14.98
2023-01-19T13:50:03.854Z,14.80
2023-01-19T13:52:30.650Z,15.07
2023-01-19T13:55:01.160Z,15.10
2023-01-19T13:57:32.883Z,15.43
2023-01-19T14:00:02.143Z,15.23
2023-01-19T14:02:28.420Z,15.57
2023-01-19T14:04:57.098Z,14.65
2023-01-19T14:07:26.510Z,14.95
2023-01-19T14:10:05.982Z,16.23
2023-01-19T14:12:32.393Z,14.40
2023-01-19T14:14:58.600Z,14.95
2023-01-19T14:17:24.849Z,15.18
2023-01-19T14:19:52.445Z,14.50
2023-01-19T14:22:18.684Z,14.55
2023-01-19T14:24:44.939Z,14.13
2023-01-19T14:27:24.493Z,15.48
2023-01-19T14:29:53.599Z,15.82
2023-01-19T14:32:21.115Z,14.50
2023-01-19T14:34:52.707Z,14.40
2023-01-19T14:37:24.990Z,14.25
2023-01-19T14:40:11.106Z,14.70
2023-01-19T14:42:39.140Z,13.20
2023-01-19T14:45:15.855Z,13.55
2023-01-19T14:47:43.469Z,12.50
2023-01-19T14:50:30.020Z,13.52
2023-01-19T14:52:58.009Z,12.43
2023-01-19T14:55:28.755Z,13.30
2023-01-19T14:57:55.233Z,14.13
2023-01-19T15:00:21.778Z,12.63
2023-01-19T15:02:48.083Z,12.65
2023-01-19T15:05:14.526Z,12.85
2023-01-19T15:07:42.344Z,12.63
2023-01-19T15:10:20.952Z,12.57
2023-01-19T15:12:48.084Z,12.85
2023-01-19T15:15:15.600Z,11.25
2023-01-19T15:17:42.122Z,12.38
2023-01-19T15:20:15.954Z,12.20
2023-01-19T15:22:42.279Z,12.57
2023-01-19T15:25:09.667Z,12.55
2023-01-19T15:27:36.107Z,12.35
2023-01-19T15:30:02.300Z,11.52
2023-01-19T15:32:28.510Z,11.30
2023-01-19T15:34:54.864Z,11.68
2023-01-19T15:37:21.065Z,11.35
2023-01-19T15:39:47.321Z,10.93
2023-01-19T15:42:14.353Z,11.32
2023-01-19T15:44:40.578Z,11.63
2023-01-19T15:47:06.861Z,10.80
2023-01-19T15:49:33.433Z,11.73
2023-01-19T15:51:59.639Z,10.85
2023-01-19T15:54:26.044Z,10.20
2023-01-19T15:56:52.767Z,10.25
2023-01-19T15:59:18.964Z,10.77
2023-01-19T16:01:45.274Z,9.57
2023-01-19T16:04:11.788Z,9.60
2023-01-19T16:06:38.033Z,10.68
2023-01-19T16:09:04.254Z,10.13
2023-01-19T16:11:31.864Z,10.63
2023-01-19T16:13:58.072Z,9.98
2023-01-19T16:16:25.006Z,10.13
2023-01-19T16:18:51.278Z,9.65
2023-01-19T16:21:17.563Z,10.02
2023-01-19T16:23:43.890Z,8.85
2023-01-19T16:26:29.197Z,9.93
2023-01-19T16:28:55.960Z,9.73
2023-01-19T16:31:22.197Z,9.15
2023-01-19T16:33:48.987Z,8.32
2023-01-19T16:36:22.917Z,9.10
2023-01-19T16:38:49.147Z,8.77
2023-01-19T16:41:15.568Z,8.63
2023-01-19T16:43:41.829Z,8.43
2023-01-19T16:46:16.788Z,8.48
2023-01-19T16:48:43.036Z,9.38
2023-01-19T16:51:09.211Z,8.63
2023-01-19T16:53:35.508Z,8.20
2023-01-19T16:56:06.401Z,7.45
2023-01-19T16:58:32.703Z,8.23
2023-01-19T17:00:59.410Z,7.97
2023-01-19T17:03:27.081Z,8.70
2023-01-19T17:05:53.346Z,7.90
2023-01-19T17:08:20.066Z,7.65
2023-01-19T17:10:46.749Z,7.93
2023-01-19T17:13:13.090Z,7.50
2023-01-19T17:15:39.319Z,7.90
2023-01-19T17:18:05.558Z,6.65
2023-01-19T17:20:34.546Z,6.97
2023-01-19T17:23:00.934Z,7.43
2023-01-19T17:25:27.206Z,6.70
2023-01-19T17:27:53.489Z,6.68
2023-01-19T17:30:20.277Z,6.93
2023-01-19T17:32:46.631Z,7.72
2023-01-19T17:35:12.879Z,6.93
2023-01-19T17:37:39.093Z,6.97
2023-01-19T17:40:05.607Z,7.03
2023-01-19T17:42:31.792Z,6.80
2023-01-19T17:44:58.002Z,6.30
2023-01-19T17:47:25.922Z,6.43
2023-01-19T17:49:52.221Z,7.07
2023-01-19T17:52:18.528Z,6.70
2023-01-19T17:54:44.755Z,6.75
2023-01-19T17:57:10.968Z,7.65
2023-01-19T17:59:39.664Z,7.40
2023-01-19T18:02:06.011Z,7.30
2023-01-19T18:04:32.383Z,7.25
2023-01-19T18:06:58.607Z,7.15
2023-01-19T18:09:24.869Z,7.13
2023-01-19T18:11:51.169Z,6.97
2023-01-19T18:14:17.375Z,6.35
2023-01-19T18:16:43.568Z,7.03
2023-01-19T18:19:09.759Z,7.78
2023-01-19T18:21:35.959Z,7.65
2023-01-19T18:24:03.770Z,7.40
2023-01-19T18:26:30.840Z,6.95
2023-01-19T18:28:57.437Z,7.18
2023-01-19T18:31:24.752Z,7.25
2023-01-19T18:33:51.036Z,7.28
2023-01-19T18:36:17.633Z,6.68
2023-01-19T18:38:44.240Z,6.72
2023-01-19T18:41:11.334Z,5.78
2023-01-19T18:43:37.795Z,6.88
2023-01-19T18:46:04.065Z,6.03
2023-01-19T18:48:30.493Z,5.97
2023-01-19T18:50:56.857Z,5.97
2023-01-19T18:53:23.558Z,5.95
2023-01-19T18:55:53.603Z,6.63
2023-01-19T18:58:20.163Z,5.85
2023-01-19T19:00:46.474Z,6.40
2023-01-19T19:03:12.795Z,6.40
2023-01-19T19:05:39.151Z,6.22
2023-01-19T19:08:05.742Z,7.05
2023-01-19T19:10:31.957Z,7.63
2023-01-19T19:12:58.225Z,7.95
2023-01-19T19:15:24.535Z,8.60
2023-01-19T19:17:50.765Z,8.30
2023-01-19T19:20:17.268Z,8.15
2023-01-19T19:22:43.490Z,8.55
2023-01-19T19:25:09.853Z,8.40
2023-01-19T19:27:36.872Z,8.32
2023-01-19T19:30:03.448Z,8.20
2023-01-19T19:32:29.657Z,7.80
2023-01-19T19:34:58.003Z,7.95
2023-01-19T19:37:24.756Z,8.32
2023-01-19T19:39:51.108Z,8.68
2023-01-19T19:42:17.332Z,9.10
2023-01-19T19:44:43.565Z,9.65
2023-01-19T19:47:09.792Z,9.05
2023-01-19T19:49:36.081Z,8.25
2023-01-19T19:52:02.342Z,8.18
2023-01-19T19:54:28.552Z,8.25
2023-01-19T19:56:54.755Z,7.70
2023-01-19T19:59:20.982Z,7.50
2023-01-19T20:01:49.650Z,7.95
2023-01-19T20:04:19.826Z,8.60
2023-01-19T20:06:47.631Z,7.70
2023-01-19T20:09:14.647Z,8.35
2023-01-19T20:11:41.558Z,7.78
2023-01-19T20:14:08.516Z,8.02
2023-01-19T20:16:34.980Z,7.15
2023-01-19T20:19:01.378Z,7.28
2023-01-19T20:21:28.768Z,7.72
2023-01-19T20:23:55.910Z,7.53
2023-01-19T20:26:25.111Z,8.15
2023-01-19T20:28:51.472Z,8.00
2023-01-19T20:31:19.329Z,7.65
2023-01-19T20:33:47.011Z,8.25
2023-01-19T20:36:13.470Z,8.57
2023-01-19T20:38:40.339Z,7.18
2023-01-19T20:41:07.189Z,7.80
2023-01-19T20:43:33.500Z,8.15
2023-01-19T20:45:59.811Z,7.65
2023-01-19T20:48:26.187Z,8.02
2023-01-19T20:50:59.203Z,7.30
2023-01-19T20:53:25.598Z,7.07
2023-01-19T20:55:51.806Z,8.50
2023-01-19T20:58:18.017Z,7.40
2023-01-19T21:00:44.616Z,7.22
2023-01-19T21:03:10.911Z,6.70
2023-01-19T21:05:37.226Z,7.20
2023-01-19T21:08:03.725Z,6.78
2023-01-19T21:10:30.047Z,7.32
2023-01-19T21:12:56.322Z,6.30
2023-01-19T21:15:22.521Z,6.22
2023-01-19T21:17:48.873Z,6.68
2023-01-19T21:20:15.229Z,7.00
2023-01-19T21:22:41.425Z,7.03
2023-01-19T21:25:08.125Z,6.50
2023-01-19T21:27:34.330Z,6.63
2023-01-19T21:30:02.188Z,6.93
2023-01-19T21:32:29.280Z,7.05
2023-01-19T21:34:55.540Z,8.05
2023-01-19T21:37:21.788Z,8.30
2023-01-19T21:39:48.010Z,8.35
2023-01-19T21:42:14.236Z,8.63
2023-01-19T21:44:40.508Z,8.65
2023-01-19T21:47:08.910Z,8.43
2023-01-19T21:49:35.323Z,8.50
2023-01-19T21:52:01.505Z,8.57
2023-01-19T21:54:27.691Z,9.02
2023-01-19T21:56:53.941Z,7.95
2023-01-19T21:59:20.517Z,8.50
2023-01-19T22:01:46.913Z,9.50
2023-01-19T22:04:13.257Z,9.15
2023-01-19T22:06:39.546Z,9.30
2023-01-19T22:09:05.973Z,8.77
2023-01-19T22:11:32.334Z,8.48
2023-01-19T22:13:59.612Z,8.90
2023-01-19T22:16:26.317Z,9.13
2023-01-19T22:18:54.022Z,9.15
2023-01-19T22:21:21.473Z,8.63
2023-01-19T22:23:48.880Z,8.95
2023-01-19T22:26:15.346Z,8.68
2023-01-19T22:28:41.575Z,9.23
2023-01-19T22:31:09.287Z,9.05
2023-01-19T22:33:35.873Z,9.02
2023-01-19T22:36:09.045Z,9.50
2023-01-19T22:38:35.254Z,9.30
2023-01-19T22:41:01.566Z,9.48
2023-01-19T22:43:27.868Z,10.32
2023-01-19T22:45:55.705Z,9.70
2023-01-19T22:48:22.224Z,9.25
2023-01-19T22:50:48.544Z,9.30
2023-01-19T22:53:14.773Z,10.55
2023-01-19T22:55:41.060Z,9.70
2023-01-19T22:58:07.272Z,9.48
2023-01-19T23:00:33.464Z,9.43
2023-01-19T23:02:59.691Z,9.77
2023-01-19T23:05:25.979Z,9.70
2023-01-19T23:07:52.211Z,10.80
2023-01-19T23:10:18.422Z,9.45
2023-01-19T23:12:46.512Z,10.15
2023-01-19T23:15:12.957Z,10.20
2023-01-19T23:17:39.278Z,9.88
2023-01-19T23:20:05.848Z,11.18
2023-01-19T23:22:32.075Z,10.05
2023-01-19T23:24:58.287Z,10.25
2023-01-19T23:27:24.488Z,10.55
2023-01-19T23:29:50.719Z,10.20
2023-01-19T23:32:16.927Z,10.65
2023-01-19T23:34:43.157Z,9.85
2023-01-19T23:37:09.404Z,10.95
2023-01-19T23:39:35.624Z,10.25
2023-01-19T23:42:03.427Z,9.68
2023-01-19T23:44:29.629Z,11.68
2023-01-19T23:46:57.849Z,10.05
2023-01-19T23:49:24.172Z,10.63
2023-01-19T23:51:50.375Z,10.98
2023-01-19T23:54:16.864Z,10.85
2023-01-19T23:56:43.243Z,10.07
2023-01-19T23:59:10.755Z,11.43
